sensor_id;sensor_type;location;lat;lon;timestamp;P1;durP1;ratioP1;P2;durP2;ratioP2
48317;SDS011;34127;47.412;9.730;2022-08-19T00:02:16;5.45;;;3.35;;
48317;SDS011;34127;47.412;9.730;2022-08-19T00:04:42;5.65;;;3.42;;
48317;SDS011;34127;47.412;9.730;2022-08-19T00:07:11;8.40;;;4.18;;
48317;SDS011;34127;47.412;9.730;2022-08-19T00:09:38;4.28;;;3.60;;
48317;SDS011;34127;47.412;9.730;2022-08-19T00:12:04;6.90;;;4.43;;
48317;SDS011;34127;47.412;9.730;2022-08-19T00:14:30;8.50;;;6.07;;
48317;SDS011;34127;47.412;9.730;2022-08-19T00:16:56;12.15;;;8.27;;
48317;SDS011;34127;47.412;9.730;2022-08-19T00:19:23;10.88;;;7.47;;
48317;SDS011;34127;47.412;9.730;2022-08-19T00:21:49;11.82;;;8.95;;
48317;SDS011;34127;47.412;9.730;2022-08-19T00:24:15;14.05;;;9.00;;
48317;SDS011;34127;47.412;9.730;2022-08-19T00:26:42;16.00;;;10.45;;
48317;SDS011;34127;47.412;9.730;2022-08-19T00:29:09;18.00;;;12.27;;
48317;SDS011;34127;47.412;9.730;2022-08-19T00:31:36;20.92;;;13.93;;
48317;SDS011;34127;47.412;9.730;2022-08-19T00:34:02;18.77;;;13.38;;
48317;SDS011;34127;47.412;9.730;2022-08-19T00:36:29;23.80;;;16.60;;
48317;SDS011;34127;47.412;9.730;2022-08-19T00:38:56;25.63;;;17.23;;
48317;SDS011;34127;47.412;9.730;2022-08-19T00:41:24;28.75;;;17.27;;
48317;SDS011;34127;47.412;9.730;2022-08-19T00:44:24;36.70;;;21.20;;
48317;SDS011;34127;47.412;9.730;2022-08-19T00:46:45;56.08;;;27.63;;
48317;SDS011;34127;47.412;9.730;2022-08-19T00:49:47;58.35;;;29.65;;
48317;SDS011;34127;47.412;9.730;2022-08-19T00:52:12;67.30;;;31.02;;
48317;SDS011;34127;47.412;9.730;2022-08-19T00:54:40;65.35;;;32.42;;
48317;SDS011;34127;47.412;9.730;2022-08-19T00:57:09;68.35;;;29.77;;
48317;SDS011;34127;47.412;9.730;2022-08-19T00:59:38;63.60;;;30.45;;
48317;SDS011;34127;47.412;9.730;2022-08-19T01:02:05;66.55;;;33.53;;
48317;SDS011;34127;47.412;9.730;2022-08-19T01:04:31;69.65;;;33.78;;
48317;SDS011;34127;47.412;9.730;2022-08-19T01:06:58;66.28;;;34.65;;
48317;SDS011;34127;47.412;9.730;2022-08-19T01:09:25;78.75;;;36.50;;
48317;SDS011;34127;47.412;9.730;2022-08-19T01:11:51;73.18;;;36.83;;
48317;SDS011;34127;47.412;9.730;2022-08-19T01:14:17;78.93;;;37.53;;
48317;SDS011;34127;47.412;9.730;2022-08-19T01:16:44;81.20;;;38.65;;
48317;SDS011;34127;47.412;9.730;2022-08-19T01:19:27;83.15;;;39.28;;
48317;SDS011;34127;47.412;9.730;2022-08-19T01:22:01;90.70;;;39.75;;
48317;SDS011;34127;47.412;9.730;2022-08-19T01:24:28;92.90;;;39.78;;
48317;SDS011;34127;47.412;9.730;2022-08-19T01:26:55;89.68;;;40.22;;
48317;SDS011;34127;47.412;9.730;2022-08-19T01:29:21;94.53;;;40.00;;
48317;SDS011;34127;47.412;9.730;2022-08-19T01:31:48;91.03;;;38.53;;
48317;SDS011;34127;47.412;9.730;2022-08-19T01:34:17;85.85;;;37.83;;
48317;SDS011;34127;47.412;9.730;2022-08-19T01:36:44;77.82;;;36.63;;
48317;SDS011;34127;47.412;9.730;2022-08-19T01:39:12;64.88;;;32.03;;
48317;SDS011;34127;47.412;9.730;2022-08-19T01:41:39;60.58;;;29.77;;
48317;SDS011;34127;47.412;9.730;2022-08-19T01:44:06;54.88;;;28.90;;
48317;SDS011;34127;47.412;9.730;2022-08-19T01:46:32;48.35;;;27.95;;
48317;SDS011;34127;47.412;9.730;2022-08-19T01:48:59;46.92;;;26.10;;
48317;SDS011;34127;47.412;9.730;2022-08-19T01:51:25;43.95;;;24.70;;
48317;SDS011;34127;47.412;9.730;2022-08-19T01:53:52;39.65;;;23.63;;
48317;SDS011;34127;47.412;9.730;2022-08-19T01:56:18;45.67;;;24.52;;
48317;SDS011;34127;47.412;9.730;2022-08-19T01:58:45;44.00;;;24.20;;
48317;SDS011;34127;47.412;9.730;2022-08-19T02:01:13;38.55;;;22.33;;
48317;SDS011;34127;47.412;9.730;2022-08-19T02:03:39;28.50;;;18.33;;
48317;SDS011;34127;47.412;9.730;2022-08-19T02:06:06;26.92;;;17.05;;
48317;SDS011;34127;47.412;9.730;2022-08-19T02:08:33;24.52;;;17.40;;
48317;SDS011;34127;47.412;9.730;2022-08-19T02:11:00;31.30;;;21.35;;
48317;SDS011;34127;47.412;9.730;2022-08-19T02:13:26;37.85;;;21.83;;
48317;SDS011;34127;47.412;9.730;2022-08-19T02:15:52;34.70;;;21.92;;
48317;SDS011;34127;47.412;9.730;2022-08-19T02:18:19;34.67;;;22.65;;
48317;SDS011;34127;47.412;9.730;2022-08-19T02:20:45;33.10;;;22.42;;
48317;SDS011;34127;47.412;9.730;2022-08-19T02:23:13;31.55;;;22.48;;
48317;SDS011;34127;47.412;9.730;2022-08-19T02:25:40;29.67;;;22.00;;
48317;SDS011;34127;47.412;9.730;2022-08-19T02:28:06;31.50;;;22.13;;
48317;SDS011;34127;47.412;9.730;2022-08-19T02:30:32;21.33;;;16.95;;
48317;SDS011;34127;47.412;9.730;2022-08-19T02:32:58;20.52;;;16.77;;
48317;SDS011;34127;47.412;9.730;2022-08-19T02:35:25;19.88;;;16.77;;
48317;SDS011;34127;47.412;9.730;2022-08-19T02:37:51;23.65;;;17.17;;
48317;SDS011;34127;47.412;9.730;2022-08-19T02:40:36;20.75;;;16.60;;
48317;SDS011;34127;47.412;9.730;2022-08-19T02:43:03;25.20;;;19.05;;
48317;SDS011;34127;47.412;9.730;2022-08-19T02:45:34;24.95;;;20.25;;
48317;SDS011;34127;47.412;9.730;2022-08-19T02:48:01;27.50;;;20.27;;
48317;SDS011;34127;47.412;9.730;2022-08-19T02:50:27;24.25;;;18.77;;
48317;SDS011;34127;47.412;9.730;2022-08-19T02:52:53;27.20;;;19.27;;
48317;SDS011;34127;47.412;9.730;2022-08-19T02:55:19;23.95;;;19.15;;
48317;SDS011;34127;47.412;9.730;2022-08-19T02:57:46;25.55;;;20.45;;
48317;SDS011;34127;47.412;9.730;2022-08-19T03:00:12;24.48;;;19.17;;
48317;SDS011;34127;47.412;9.730;2022-08-19T03:02:39;27.48;;;20.45;;
48317;SDS011;34127;47.412;9.730;2022-08-19T03:05:07;25.38;;;19.05;;
48317;SDS011;34127;47.412;9.730;2022-08-19T03:07:34;29.40;;;20.35;;
48317;SDS011;34127;47.412;9.730;2022-08-19T03:10:01;28.50;;;19.52;;
48317;SDS011;34127;47.412;9.730;2022-08-19T03:12:27;27.80;;;18.92;;
48317;SDS011;34127;47.412;9.730;2022-08-19T03:14:53;25.08;;;19.33;;
48317;SDS011;34127;47.412;9.730;2022-08-19T03:17:19;21.90;;;17.52;;
48317;SDS011;34127;47.412;9.730;2022-08-19T03:19:45;26.05;;;18.92;;
48317;SDS011;34127;47.412;9.730;2022-08-19T03:22:11;21.88;;;17.52;;
48317;SDS011;34127;47.412;9.730;2022-08-19T03:24:37;21.20;;;17.27;;
48317;SDS011;34127;47.412;9.730;2022-08-19T03:27:04;21.23;;;16.92;;
48317;SDS011;34127;47.412;9.730;2022-08-19T03:29:30;24.17;;;18.25;;
48317;SDS011;34127;47.412;9.730;2022-08-19T03:32:00;21.27;;;17.42;;
48317;SDS011;34127;47.412;9.730;2022-08-19T03:34:29;21.95;;;17.80;;
48317;SDS011;34127;47.412;9.730;2022-08-19T03:36:56;22.33;;;17.40;;
48317;SDS011;34127;47.412;9.730;2022-08-19T03:39:23;24.17;;;18.55;;
48317;SDS011;34127;47.412;9.730;2022-08-19T03:41:50;22.20;;;17.73;;
48317;SDS011;34127;47.412;9.730;2022-08-19T03:44:18;19.17;;;15.90;;
48317;SDS011;34127;47.412;9.730;2022-08-19T03:46:51;22.60;;;16.92;;
48317;SDS011;34127;47.412;9.730;2022-08-19T03:49:18;20.52;;;15.98;;
48317;SDS011;34127;47.412;9.730;2022-08-19T03:51:44;22.02;;;16.75;;
48317;SDS011;34127;47.412;9.730;2022-08-19T03:54:12;21.08;;;16.55;;
48317;SDS011;34127;47.412;9.730;2022-08-19T03:56:40;20.55;;;16.05;;
48317;SDS011;34127;47.412;9.730;2022-08-19T03:59:07;20.88;;;17.05;;
48317;SDS011;34127;47.412;9.730;2022-08-19T04:01:34;19.40;;;15.57;;
48317;SDS011;34127;47.412;9.730;2022-08-19T04:04:00;17.45;;;15.23;;
48317;SDS011;34127;47.412;9.730;2022-08-19T04:06:28;18.80;;;15.85;;
48317;SDS011;34127;47.412;9.730;2022-08-19T04:08:55;20.80;;;16.52;;
48317;SDS011;34127;47.412;9.730;2022-08-19T04:11:28;20.98;;;16.92;;
48317;SDS011;34127;47.412;9.730;2022-08-19T04:13:54;23.58;;;17.15;;
48317;SDS011;34127;47.412;9.730;2022-08-19T04:16:21;22.17;;;18.13;;
48317;SDS011;34127;47.412;9.730;2022-08-19T04:18:48;20.42;;;16.20;;
48317;SDS011;34127;47.412;9.730;2022-08-19T04:21:19;23.50;;;18.17;;
48317;SDS011;34127;47.412;9.730;2022-08-19T04:23:46;21.98;;;17.58;;
48317;SDS011;34127;47.412;9.730;2022-08-19T04:26:23;24.67;;;18.42;;
48317;SDS011;34127;47.412;9.730;2022-08-19T04:28:49;22.92;;;18.13;;
48317;SDS011;34127;47.412;9.730;2022-08-19T04:31:20;20.92;;;17.08;;
48317;SDS011;34127;47.412;9.730;2022-08-19T04:33:47;21.25;;;17.17;;
48317;SDS011;34127;47.412;9.730;2022-08-19T04:36:21;19.83;;;16.70;;
48317;SDS011;34127;47.412;9.730;2022-08-19T04:38:47;18.63;;;15.82;;
48317;SDS011;34127;47.412;9.730;2022-08-19T04:41:13;18.27;;;14.93;;
48317;SDS011;34127;47.412;9.730;2022-08-19T04:43:58;19.30;;;15.85;;
48317;SDS011;34127;47.412;9.730;2022-08-19T04:46:24;19.95;;;16.00;;
48317;SDS011;34127;47.412;9.730;2022-08-19T04:48:51;18.83;;;15.20;;
48317;SDS011;34127;47.412;9.730;2022-08-19T04:51:18;17.98;;;14.38;;
48317;SDS011;34127;47.412;9.730;2022-08-19T04:53:45;19.70;;;15.48;;
48317;SDS011;34127;47.412;9.730;2022-08-19T04:56:15;16.48;;;14.23;;
48317;SDS011;34127;47.412;9.730;2022-08-19T04:58:42;20.45;;;15.80;;
48317;SDS011;34127;47.412;9.730;2022-08-19T05:01:19;20.08;;;15.93;;
48317;SDS011;34127;47.412;9.730;2022-08-19T05:03:46;19.15;;;15.50;;
48317;SDS011;34127;47.412;9.730;2022-08-19T05:06:13;17.20;;;14.45;;
48317;SDS011;34127;47.412;9.730;2022-08-19T05:08:40;21.88;;;16.63;;
48317;SDS011;34127;47.412;9.730;2022-08-19T05:11:09;19.92;;;15.65;;
48317;SDS011;34127;47.412;9.730;2022-08-19T05:13:36;18.92;;;15.70;;
48317;SDS011;34127;47.412;9.730;2022-08-19T05:16:02;21.52;;;17.05;;
48317;SDS011;34127;47.412;9.730;2022-08-19T05:18:28;17.10;;;14.65;;
48317;SDS011;34127;47.412;9.730;2022-08-19T05:21:14;21.20;;;16.35;;
48317;SDS011;34127;47.412;9.730;2022-08-19T05:23:59;21.45;;;17.63;;
48317;SDS011;34127;47.412;9.730;2022-08-19T05:26:27;21.33;;;16.50;;
48317;SDS011;34127;47.412;9.730;2022-08-19T05:28:53;24.02;;;18.98;;
48317;SDS011;34127;47.412;9.730;2022-08-19T05:31:20;28.95;;;21.13;;
48317;SDS011;34127;47.412;9.730;2022-08-19T05:33:46;34.33;;;24.75;;
48317;SDS011;34127;47.412;9.730;2022-08-19T05:36:12;43.05;;;27.88;;
48317;SDS011;34127;47.412;9.730;2022-08-19T05:38:39;44.50;;;28.23;;
48317;SDS011;34127;47.412;9.730;2022-08-19T05:41:08;49.28;;;28.95;;
48317;SDS011;34127;47.412;9.730;2022-08-19T05:43:35;49.30;;;28.83;;
48317;SDS011;34127;47.412;9.730;2022-08-19T05:46:01;49.47;;;29.80;;
48317;SDS011;34127;47.412;9.730;2022-08-19T05:48:29;47.70;;;28.88;;
48317;SDS011;34127;47.412;9.730;2022-08-19T05:50:56;53.58;;;30.90;;
48317;SDS011;34127;47.412;9.730;2022-08-19T05:53:23;52.67;;;28.85;;
48317;SDS011;34127;47.412;9.730;2022-08-19T05:55:49;47.95;;;28.65;;
48317;SDS011;34127;47.412;9.730;2022-08-19T05:58:15;48.20;;;27.40;;
48317;SDS011;34127;47.412;9.730;2022-08-19T06:00:42;38.20;;;24.33;;
48317;SDS011;34127;47.412;9.730;2022-08-19T06:03:09;45.22;;;26.95;;
48317;SDS011;34127;47.412;9.730;2022-08-19T06:05:36;37.88;;;24.83;;
48317;SDS011;34127;47.412;9.730;2022-08-19T06:08:02;36.40;;;23.67;;
48317;SDS011;34127;47.412;9.730;2022-08-19T06:10:29;40.78;;;25.15;;
48317;SDS011;34127;47.412;9.730;2022-08-19T06:12:55;38.97;;;25.63;;
48317;SDS011;34127;47.412;9.730;2022-08-19T06:15:21;41.78;;;25.13;;
48317;SDS011;34127;47.412;9.730;2022-08-19T06:17:51;39.05;;;24.67;;
48317;SDS011;34127;47.412;9.730;2022-08-19T06:20:17;39.92;;;23.83;;
48317;SDS011;34127;47.412;9.730;2022-08-19T06:22:46;37.90;;;23.02;;
48317;SDS011;34127;47.412;9.730;2022-08-19T06:25:16;29.92;;;19.42;;
48317;SDS011;34127;47.412;9.730;2022-08-19T06:27:42;26.80;;;18.52;;
48317;SDS011;34127;47.412;9.730;2022-08-19T06:30:09;22.08;;;15.60;;
48317;SDS011;34127;47.412;9.730;2022-08-19T06:32:36;23.13;;;15.48;;
48317;SDS011;34127;47.412;9.730;2022-08-19T06:35:02;17.77;;;12.75;;
48317;SDS011;34127;47.412;9.730;2022-08-19T06:37:29;17.50;;;12.45;;
48317;SDS011;34127;47.412;9.730;2022-08-19T06:39:55;16.85;;;12.15;;
48317;SDS011;34127;47.412;9.730;2022-08-19T06:42:22;18.83;;;14.10;;
48317;SDS011;34127;47.412;9.730;2022-08-19T06:44:48;19.45;;;14.68;;
48317;SDS011;34127;47.412;9.730;2022-08-19T06:47:15;22.40;;;16.27;;
48317;SDS011;34127;47.412;9.730;2022-08-19T06:49:42;25.48;;;17.17;;
48317;SDS011;34127;47.412;9.730;2022-08-19T06:52:09;27.13;;;17.35;;
48317;SDS011;34127;47.412;9.730;2022-08-19T06:54:39;27.02;;;18.27;;
48317;SDS011;34127;47.412;9.730;2022-08-19T06:57:06;26.85;;;19.13;;
48317;SDS011;34127;47.412;9.730;2022-08-19T06:59:34;25.42;;;17.33;;
48317;SDS011;34127;47.412;9.730;2022-08-19T07:02:03;30.08;;;18.90;;
48317;SDS011;34127;47.412;9.730;2022-08-19T07:04:32;25.23;;;17.85;;
48317;SDS011;34127;47.412;9.730;2022-08-19T07:07:00;26.23;;;18.88;;
48317;SDS011;34127;47.412;9.730;2022-08-19T07:09:27;29.50;;;19.63;;
48317;SDS011;34127;47.412;9.730;2022-08-19T07:11:53;30.55;;;20.00;;
48317;SDS011;34127;47.412;9.730;2022-08-19T07:14:21;30.38;;;21.13;;
48317;SDS011;34127;47.412;9.730;2022-08-19T07:16:48;26.20;;;18.08;;
48317;SDS011;34127;47.412;9.730;2022-08-19T07:19:14;24.88;;;18.08;;
48317;SDS011;34127;47.412;9.730;2022-08-19T07:21:41;23.00;;;16.73;;
48317;SDS011;34127;47.412;9.730;2022-08-19T07:24:07;21.10;;;16.48;;
48317;SDS011;34127;47.412;9.730;2022-08-19T07:26:37;25.98;;;16.60;;
48317;SDS011;34127;47.412;9.730;2022-08-19T07:29:04;23.42;;;16.73;;
48317;SDS011;34127;47.412;9.730;2022-08-19T07:31:30;23.83;;;16.27;;
48317;SDS011;34127;47.412;9.730;2022-08-19T07:34:00;25.67;;;16.13;;
48317;SDS011;34127;47.412;9.730;2022-08-19T07:36:27;21.55;;;15.57;;
48317;SDS011;34127;47.412;9.730;2022-08-19T07:38:57;23.17;;;15.45;;
48317;SDS011;34127;47.412;9.730;2022-08-19T07:41:24;22.17;;;15.13;;
48317;SDS011;34127;47.412;9.730;2022-08-19T07:43:51;20.92;;;15.18;;
48317;SDS011;34127;47.412;9.730;2022-08-19T07:46:18;24.85;;;15.80;;
48317;SDS011;34127;47.412;9.730;2022-08-19T07:48:45;26.15;;;16.83;;
48317;SDS011;34127;47.412;9.730;2022-08-19T07:51:13;22.10;;;16.65;;
48317;SDS011;34127;47.412;9.730;2022-08-19T07:53:40;23.60;;;16.58;;
48317;SDS011;34127;47.412;9.730;2022-08-19T07:56:06;21.90;;;16.50;;
48317;SDS011;34127;47.412;9.730;2022-08-19T07:58:33;22.33;;;15.55;;
48317;SDS011;34127;47.412;9.730;2022-08-19T08:01:00;20.20;;;15.35;;
48317;SDS011;34127;47.412;9.730;2022-08-19T08:03:27;23.33;;;14.40;;
48317;SDS011;34127;47.412;9.730;2022-08-19T08:06:13;21.88;;;14.40;;
48317;SDS011;34127;47.412;9.730;2022-08-19T08:08:58;23.20;;;16.27;;
48317;SDS011;34127;47.412;9.730;2022-08-19T08:11:41;27.50;;;17.02;;
48317;SDS011;34127;47.412;9.730;2022-08-19T08:14:08;25.45;;;17.48;;
48317;SDS011;34127;47.412;9.730;2022-08-19T08:16:35;27.25;;;17.38;;
48317;SDS011;34127;47.412;9.730;2022-08-19T08:19:05;28.55;;;19.10;;
48317;SDS011;34127;47.412;9.730;2022-08-19T08:21:32;29.67;;;19.90;;
48317;SDS011;34127;47.412;9.730;2022-08-19T08:23:58;28.42;;;19.42;;
48317;SDS011;34127;47.412;9.730;2022-08-19T08:26:24;32.65;;;19.95;;
48317;SDS011;34127;47.412;9.730;2022-08-19T08:28:50;33.72;;;22.15;;
48317;SDS011;34127;47.412;9.730;2022-08-19T08:31:17;36.45;;;23.05;;
48317;SDS011;34127;47.412;9.730;2022-08-19T08:33:47;38.15;;;23.67;;
48317;SDS011;34127;47.412;9.730;2022-08-19T08:36:13;38.38;;;24.08;;
48317;SDS011;34127;47.412;9.730;2022-08-19T08:38:40;35.17;;;22.90;;
48317;SDS011;34127;47.412;9.730;2022-08-19T08:41:26;37.83;;;23.45;;
48317;SDS011;34127;47.412;9.730;2022-08-19T08:46:33;35.95;;;23.73;;
48317;SDS011;34127;47.412;9.730;2022-08-19T08:49:10;37.38;;;24.27;;
48317;SDS011;34127;47.412;9.730;2022-08-19T08:51:44;37.30;;;23.92;;
48317;SDS011;34127;47.412;9.730;2022-08-19T08:54:13;36.88;;;24.15;;
48317;SDS011;34127;47.412;9.730;2022-08-19T08:56:41;36.50;;;23.70;;
48317;SDS011;34127;47.412;9.730;2022-08-19T08:59:10;37.22;;;23.90;;
48317;SDS011;34127;47.412;9.730;2022-08-19T09:01:38;37.03;;;24.63;;
48317;SDS011;34127;47.412;9.730;2022-08-19T09:04:05;37.47;;;23.98;;
48317;SDS011;34127;47.412;9.730;2022-08-19T09:09:03;36.55;;;24.75;;
48317;SDS011;34127;47.412;9.730;2022-08-19T09:14:34;40.30;;;26.27;;
48317;SDS011;34127;47.412;9.730;2022-08-19T09:16:56;42.83;;;26.45;;
48317;SDS011;34127;47.412;9.730;2022-08-19T09:19:22;39.67;;;26.13;;
48317;SDS011;34127;47.412;9.730;2022-08-19T09:21:48;42.85;;;25.95;;
48317;SDS011;34127;47.412;9.730;2022-08-19T09:24:15;40.67;;;26.35;;
48317;SDS011;34127;47.412;9.730;2022-08-19T09:26:41;43.08;;;27.02;;
48317;SDS011;34127;47.412;9.730;2022-08-19T09:29:08;38.70;;;25.67;;
48317;SDS011;34127;47.412;9.730;2022-08-19T09:31:35;34.30;;;22.42;;
48317;SDS011;34127;47.412;9.730;2022-08-19T09:34:02;36.28;;;24.02;;
48317;SDS011;34127;47.412;9.730;2022-08-19T09:36:31;39.03;;;25.50;;
48317;SDS011;34127;47.412;9.730;2022-08-19T09:38:59;33.85;;;23.17;;
48317;SDS011;34127;47.412;9.730;2022-08-19T09:41:25;33.65;;;23.33;;
48317;SDS011;34127;47.412;9.730;2022-08-19T09:43:52;32.58;;;23.08;;
48317;SDS011;34127;47.412;9.730;2022-08-19T09:46:21;31.77;;;23.00;;
48317;SDS011;34127;47.412;9.730;2022-08-19T09:48:48;32.25;;;22.80;;
48317;SDS011;34127;47.412;9.730;2022-08-19T09:51:16;33.58;;;23.35;;
48317;SDS011;34127;47.412;9.730;2022-08-19T09:53:44;34.25;;;25.02;;
48317;SDS011;34127;47.412;9.730;2022-08-19T09:56:11;33.75;;;23.77;;
48317;SDS011;34127;47.412;9.730;2022-08-19T09:58:38;35.38;;;24.48;;
48317;SDS011;34127;47.412;9.730;2022-08-19T10:01:05;34.47;;;23.70;;
48317;SDS011;34127;47.412;9.730;2022-08-19T10:03:31;42.75;;;28.83;;
48317;SDS011;34127;47.412;9.730;2022-08-19T10:05:59;35.67;;;24.83;;
48317;SDS011;34127;47.412;9.730;2022-08-19T10:08:27;36.40;;;25.40;;
48317;SDS011;34127;47.412;9.730;2022-08-19T10:10:54;33.15;;;23.10;;
48317;SDS011;34127;47.412;9.730;2022-08-19T10:13:21;35.65;;;23.67;;
48317;SDS011;34127;47.412;9.730;2022-08-19T10:15:48;35.90;;;24.45;;
48317;SDS011;34127;47.412;9.730;2022-08-19T10:18:19;35.17;;;24.65;;
48317;SDS011;34127;47.412;9.730;2022-08-19T10:20:49;37.70;;;25.23;;
48317;SDS011;34127;47.412;9.730;2022-08-19T10:23:16;35.75;;;24.20;;
48317;SDS011;34127;47.412;9.730;2022-08-19T10:25:42;37.75;;;24.13;;
48317;SDS011;34127;47.412;9.730;2022-08-19T10:28:09;37.25;;;24.38;;
48317;SDS011;34127;47.412;9.730;2022-08-19T10:30:37;35.85;;;23.67;;
48317;SDS011;34127;47.412;9.730;2022-08-19T10:33:04;34.53;;;22.08;;
48317;SDS011;34127;47.412;9.730;2022-08-19T10:35:30;32.38;;;21.92;;
48317;SDS011;34127;47.412;9.730;2022-08-19T10:37:56;31.60;;;21.50;;
48317;SDS011;34127;47.412;9.730;2022-08-19T10:40:24;31.27;;;21.80;;
48317;SDS011;34127;47.412;9.730;2022-08-19T10:42:51;28.45;;;20.70;;
48317;SDS011;34127;47.412;9.730;2022-08-19T10:45:17;24.90;;;18.77;;
48317;SDS011;34127;47.412;9.730;2022-08-19T10:47:43;25.20;;;18.80;;
48317;SDS011;34127;47.412;9.730;2022-08-19T10:50:09;19.52;;;14.73;;
48317;SDS011;34127;47.412;9.730;2022-08-19T10:52:54;22.00;;;14.82;;
48317;SDS011;34127;47.412;9.730;2022-08-19T10:55:21;17.25;;;12.13;;
48317;SDS011;34127;47.412;9.730;2022-08-19T10:58:13;14.70;;;10.43;;
48317;SDS011;34127;47.412;9.730;2022-08-19T11:00:40;18.52;;;11.15;;
48317;SDS011;34127;47.412;9.730;2022-08-19T11:03:08;13.32;;;9.23;;
48317;SDS011;34127;47.412;9.730;2022-08-19T11:05:34;12.95;;;9.52;;
48317;SDS011;34127;47.412;9.730;2022-08-19T11:08:00;14.43;;;10.15;;
48317;SDS011;34127;47.412;9.730;2022-08-19T11:10:26;15.20;;;9.27;;
48317;SDS011;34127;47.412;9.730;2022-08-19T11:12:52;14.15;;;8.65;;
48317;SDS011;34127;47.412;9.730;2022-08-19T11:15:19;11.00;;;6.72;;
48317;SDS011;34127;47.412;9.730;2022-08-19T11:17:45;9.75;;;6.15;;
48317;SDS011;34127;47.412;9.730;2022-08-19T11:20:12;8.30;;;5.53;;
48317;SDS011;34127;47.412;9.730;2022-08-19T11:22:39;12.73;;;5.72;;
48317;SDS011;34127;47.412;9.730;2022-08-19T11:25:06;7.13;;;4.60;;
48317;SDS011;34127;47.412;9.730;2022-08-19T11:27:32;11.25;;;4.35;;
48317;SDS011;34127;47.412;9.730;2022-08-19T11:29:58;8.38;;;5.43;;
48317;SDS011;34127;47.412;9.730;2022-08-19T11:32:25;8.50;;;4.63;;
48317;SDS011;34127;47.412;9.730;2022-08-19T11:34:52;8.65;;;4.78;;
48317;SDS011;34127;47.412;9.730;2022-08-19T11:37:19;11.20;;;5.60;;
48317;SDS011;34127;47.412;9.730;2022-08-19T11:39:45;8.68;;;4.80;;
48317;SDS011;34127;47.412;9.730;2022-08-19T11:42:11;8.30;;;4.00;;
48317;SDS011;34127;47.412;9.730;2022-08-19T11:44:56;6.90;;;3.33;;
48317;SDS011;34127;47.412;9.730;2022-08-19T11:47:22;8.02;;;2.75;;
48317;SDS011;34127;47.412;9.730;2022-08-19T11:49:49;7.78;;;2.72;;
48317;SDS011;34127;47.412;9.730;2022-08-19T11:52:15;6.05;;;2.50;;
48317;SDS011;34127;47.412;9.730;2022-08-19T11:54:41;5.45;;;2.50;;
48317;SDS011;34127;47.412;9.730;2022-08-19T11:57:07;4.00;;;2.40;;
48317;SDS011;34127;47.412;9.730;2022-08-19T11:59:33;3.95;;;2.67;;
48317;SDS011;34127;47.412;9.730;2022-08-19T12:01:59;6.28;;;2.72;;
48317;SDS011;34127;47.412;9.730;2022-08-19T12:04:25;5.30;;;2.65;;
48317;SDS011;34127;47.412;9.730;2022-08-19T12:06:52;5.95;;;2.65;;
48317;SDS011;34127;47.412;9.730;2022-08-19T12:09:18;4.63;;;2.63;;
48317;SDS011;34127;47.412;9.730;2022-08-19T12:11:44;4.65;;;2.70;;
48317;SDS011;34127;47.412;9.730;2022-08-19T12:14:11;6.10;;;2.88;;
48317;SDS011;34127;47.412;9.730;2022-08-19T12:16:39;6.75;;;3.80;;
48317;SDS011;34127;47.412;9.730;2022-08-19T12:19:06;4.43;;;2.85;;
48317;SDS011;34127;47.412;9.730;2022-08-19T12:21:33;6.78;;;3.53;;
48317;SDS011;34127;47.412;9.730;2022-08-19T12:24:00;5.28;;;3.08;;
48317;SDS011;34127;47.412;9.730;2022-08-19T12:26:27;5.22;;;3.05;;
48317;SDS011;34127;47.412;9.730;2022-08-19T12:28:53;5.60;;;2.80;;
48317;SDS011;34127;47.412;9.730;2022-08-19T12:31:19;4.53;;;2.70;;
48317;SDS011;34127;47.412;9.730;2022-08-19T12:33:46;5.85;;;2.78;;
48317;SDS011;34127;47.412;9.730;2022-08-19T12:36:12;4.35;;;2.40;;
48317;SDS011;34127;47.412;9.730;2022-08-19T12:38:40;4.00;;;2.38;;
48317;SDS011;34127;47.412;9.730;2022-08-19T12:41:06;4.13;;;2.47;;
48317;SDS011;34127;47.412;9.730;2022-08-19T12:43:33;3.10;;;1.92;;
48317;SDS011;34127;47.412;9.730;2022-08-19T12:46:00;3.50;;;1.90;;
48317;SDS011;34127;47.412;9.730;2022-08-19T12:48:26;4.07;;;2.00;;
48317;SDS011;34127;47.412;9.730;2022-08-19T12:50:54;4.55;;;2.10;;
48317;SDS011;34127;47.412;9.730;2022-08-19T12:53:20;4.53;;;2.10;;
48317;SDS011;34127;47.412;9.730;2022-08-19T12:55:46;5.07;;;3.22;;
48317;SDS011;34127;47.412;9.730;2022-08-19T12:58:12;3.97;;;2.55;;
48317;SDS011;34127;47.412;9.730;2022-08-19T13:00:39;5.10;;;2.90;;
48317;SDS011;34127;47.412;9.730;2022-08-19T13:03:05;5.40;;;2.30;;
48317;SDS011;34127;47.412;9.730;2022-08-19T13:05:32;4.00;;;2.17;;
48317;SDS011;34127;47.412;9.730;2022-08-19T13:07:59;4.85;;;2.40;;
48317;SDS011;34127;47.412;9.730;2022-08-19T13:10:27;4.03;;;2.00;;
48317;SDS011;34127;47.412;9.730;2022-08-19T13:12:54;5.10;;;2.50;;
48317;SDS011;34127;47.412;9.730;2022-08-19T13:15:21;4.63;;;2.30;;
48317;SDS011;34127;47.412;9.730;2022-08-19T13:17:48;6.10;;;2.55;;
48317;SDS011;34127;47.412;9.730;2022-08-19T13:20:15;4.85;;;2.50;;
48317;SDS011;34127;47.412;9.730;2022-08-19T13:22:41;6.60;;;2.80;;
48317;SDS011;34127;47.412;9.730;2022-08-19T13:25:09;3.95;;;2.40;;
48317;SDS011;34127;47.412;9.730;2022-08-19T13:27:35;6.63;;;3.20;;
48317;SDS011;34127;47.412;9.730;2022-08-19T13:30:02;4.57;;;2.40;;
48317;SDS011;34127;47.412;9.730;2022-08-19T13:32:47;4.45;;;2.20;;
48317;SDS011;34127;47.412;9.730;2022-08-19T13:35:32;5.38;;;2.38;;
48317;SDS011;34127;47.412;9.730;2022-08-19T13:37:58;3.78;;;2.33;;
48317;SDS011;34127;47.412;9.730;2022-08-19T13:40:26;4.50;;;2.25;;
48317;SDS011;34127;47.412;9.730;2022-08-19T13:42:54;5.57;;;2.78;;
48317;SDS011;34127;47.412;9.730;2022-08-19T13:45:21;10.05;;;3.13;;
48317;SDS011;34127;47.412;9.730;2022-08-19T13:47:48;5.72;;;3.25;;
48317;SDS011;34127;47.412;9.730;2022-08-19T13:50:18;5.63;;;3.45;;
48317;SDS011;34127;47.412;9.730;2022-08-19T13:52:44;5.43;;;3.63;;
48317;SDS011;34127;47.412;9.730;2022-08-19T13:55:11;8.40;;;4.32;;
48317;SDS011;34127;47.412;9.730;2022-08-19T13:57:37;5.20;;;3.35;;
48317;SDS011;34127;47.412;9.730;2022-08-19T14:00:04;5.05;;;3.50;;
48317;SDS011;34127;47.412;9.730;2022-08-19T14:02:33;6.75;;;4.10;;
48317;SDS011;34127;47.412;9.730;2022-08-19T14:04:59;5.93;;;4.18;;
48317;SDS011;34127;47.412;9.730;2022-08-19T14:07:25;6.90;;;4.40;;
48317;SDS011;34127;47.412;9.730;2022-08-19T14:09:51;7.88;;;5.55;;
48317;SDS011;34127;47.412;9.730;2022-08-19T14:12:21;7.40;;;5.07;;
48317;SDS011;34127;47.412;9.730;2022-08-19T14:14:47;6.75;;;4.20;;
48317;SDS011;34127;47.412;9.730;2022-08-19T14:17:14;8.18;;;4.55;;
48317;SDS011;34127;47.412;9.730;2022-08-19T14:19:40;5.90;;;3.60;;
48317;SDS011;34127;47.412;9.730;2022-08-19T14:22:07;5.18;;;3.90;;
48317;SDS011;34127;47.412;9.730;2022-08-19T14:24:33;7.03;;;4.40;;
48317;SDS011;34127;47.412;9.730;2022-08-19T14:26:59;7.80;;;5.13;;
48317;SDS011;34127;47.412;9.730;2022-08-19T14:29:26;6.78;;;5.50;;
48317;SDS011;34127;47.412;9.730;2022-08-19T14:31:53;7.18;;;4.88;;
48317;SDS011;34127;47.412;9.730;2022-08-19T14:34:21;8.85;;;5.55;;
48317;SDS011;34127;47.412;9.730;2022-08-19T14:36:47;7.53;;;4.97;;
48317;SDS011;34127;47.412;9.730;2022-08-19T14:39:13;6.32;;;4.40;;
48317;SDS011;34127;47.412;9.730;2022-08-19T14:41:40;9.48;;;5.78;;